Time;durP1;ratioP1;P1;durP2;ratioP2;P2;SDS_P1;SDS_P2;PMS_P1;PMS_P2;Temp;Humidity;BMP_temperature;BMP_pressure;BME280_temperature;BME280_humidity;BME280_pressure;Samples;Min_cycle;Max_cycle;Signal;HPM_P1;HPM_P2
2022/06/02 00:01:20;;;;;;;2.50;2.00;;;16.20;98.80;;;;;;4966314;28;20063;-71
2022/06/02 00:04:19;;;;;;;5.40;2.20;;;16.20;99.20;;;;;;4968309;28;20590;-72
2022/06/02 00:07:08;;;;;;;3.92;2.17;;;16.10;99.20;;;;;;4966351;28;20024;-70
2022/06/02 00:09:34;;;;;;;3.45;1.75;;;16.10;99.20;;;;;;4952990;28;20483;-71
2022/06/02 00:11:59;;;;;;;3.05;2.05;;;16.10;99.50;;;;;;4969151;28;20089;-71
2022/06/02 00:14:34;;;;;;;4.50;2.20;;;16.00;99.70;;;;;;4964279;28;20383;-71
2022/06/02 00:17:05;;;;;;;3.10;2.13;;;16.00;99.90;;;;;;4956018;28;20058;-71
2022/06/02 00:19:43;;;;;;;4.10;2.20;;;16.00;99.90;;;;;;4968524;28;20057;-72
2022/06/02 00:22:24;;;;;;;3.33;1.98;;;15.90;99.90;;;;;;4953964;28;20043;-71
2022/06/02 00:25:08;;;;;;;3.17;2.05;;;15.90;99.90;;;;;;4971091;28;20117;-72
2022/06/02 00:28:00;;;;;;;4.15;2.22;;;15.80;99.90;;;;;;4969645;28;21088;-72
2022/06/02 00:30:32;;;;;;;4.22;2.00;;;15.90;99.90;;;;;;4965105;28;20030;-71
2022/06/02 00:33:38;;;;;;;2.63;1.95;;;15.70;99.90;;;;;;4953028;28;20118;-71
2022/06/02 00:36:37;;;;;;;2.78;1.90;;;15.60;99.90;;;;;;4970463;28;20031;-71
2022/06/02 00:39:04;;;;;;;3.00;1.80;;;15.50;99.90;;;;;;4952688;28;20038;-72
2022/06/02 00:41:35;;;;;;;2.72;2.20;;;15.50;99.90;;;;;;4970015;28;20035;-71
2022/06/02 00:44:10;;;;;;;2.80;1.70;;;15.40;99.90;;;;;;4966925;28;20027;-71
2022/06/02 00:46:36;;;;;;;7.03;2.47;;;15.40;99.90;;;;;;4966221;28;20050;-72
2022/06/02 00:49:19;;;;;;;5.57;2.40;;;15.30;99.90;;;;;;4966507;28;20034;-71
2022/06/02 00:51:56;;;;;;;2.22;2.00;;;15.30;99.90;;;;;;4959102;28;20026;-71
2022/06/02 00:57:45;;;;;;;2.30;1.85;;;15.20;99.90;;;;;;4971697;28;20033;-72
2022/06/02 01:00:24;;;;;;;4.13;2.13;;;15.20;99.90;;;;;;4969613;28;20514;-72
2022/06/02 01:03:02;;;;;;;5.65;2.00;;;15.10;99.90;;;;;;4970888;28;20479;-71
2022/06/02 01:05:30;;;;;;;3.17;2.03;;;15.00;99.90;;;;;;4949844;28;20517;-72
2022/06/02 01:08:24;;;;;;;3.30;2.25;;;15.00;99.90;;;;;;4951067;28;20027;-71
2022/06/02 01:10:58;;;;;;;3.92;2.28;;;14.90;99.90;;;;;;4965906;28;20506;-73
2022/06/02 01:13:48;;;;;;;3.78;2.40;;;14.80;99.90;;;;;;4954052;28;20419;-73
2022/06/02 01:16:21;;;;;;;4.80;2.50;;;14.80;99.90;;;;;;4947739;28;20042;-72
2022/06/02 01:19:08;;;;;;;4.30;2.03;;;14.70;99.90;;;;;;4967011;28;20488;-73
2022/06/02 01:21:52;;;;;;;5.55;2.60;;;14.80;99.90;;;;;;4969470;28;20061;-71
2022/06/02 01:24:27;;;;;;;5.07;2.10;;;14.70;99.90;;;;;;4962820;28;20038;-71
2022/06/02 01:27:26;;;;;;;3.28;2.45;;;14.80;99.90;;;;;;4946238;28;20062;-72
2022/06/02 01:30:29;;;;;;;5.32;2.40;;;14.70;99.90;;;;;;4961530;28;20650;-72
2022/06/02 01:33:02;;;;;;;4.28;2.53;;;14.70;99.90;;;;;;4970756;28;20053;-72
2022/06/02 01:35:36;;;;;;;6.20;3.13;;;14.70;99.90;;;;;;4965193;28;20041;-72
2022/06/02 01:38:13;;;;;;;5.00;2.42;;;14.70;99.90;;;;;;4970708;28;20281;-72
2022/06/02 01:40:48;;;;;;;2.97;2.33;;;14.60;99.90;;;;;;4963886;28;20023;-72
2022/06/02 01:43:21;;;;;;;4.63;2.78;;;14.60;99.90;;;;;;4966455;28;20061;-72
2022/06/02 01:46:05;;;;;;;3.00;2.50;;;14.60;99.90;;;;;;4950926;28;20035;-73
2022/06/02 01:49:07;;;;;;;3.55;2.67;;;14.50;99.90;;;;;;4951069;28;20054;-73
2022/06/02 01:51:38;;;;;;;4.78;2.47;;;14.50;99.90;;;;;;4962870;28;20054;-72
2022/06/02 01:54:38;;;;;;;3.75;2.35;;;14.30;99.90;;;;;;4966333;28;20023;-73
2022/06/02 01:57:33;;;;;;;3.50;2.25;;;14.30;99.90;;;;;;4964982;28;20515;-72
2022/06/02 02:00:08;;;;;;;5.72;2.53;;;14.30;99.90;;;;;;4947830;28;20027;-72
2022/06/02 02:02:49;;;;;;;3.85;2.17;;;14.20;99.90;;;;;;4959506;28;20041;-72
2022/06/02 02:05:37;;;;;;;4.28;2.30;;;14.20;99.90;;;;;;4965275;28;20023;-72
2022/06/02 02:08:27;;;;;;;3.88;2.25;;;14.10;99.90;;;;;;4965421;28;20339;-71
2022/06/02 02:11:11;;;;;;;3.35;2.40;;;14.20;99.90;;;;;;4952422;28;20043;-73
2022/06/02 02:14:06;;;;;;;2.65;2.10;;;14.10;99.90;;;;;;4965475;28;20061;-72
2022/06/02 02:16:34;;;;;;;4.38;2.25;;;14.00;99.90;;;;;;4944436;28;20047;-73
2022/06/02 02:19:18;;;;;;;3.70;2.25;;;14.00;99.90;;;;;;4946728;28;20034;-71
2022/06/02 02:21:56;;;;;;;3.20;1.90;;;14.00;99.90;;;;;;4952823;28;20042;-73
2022/06/02 02:24:34;;;;;;;4.07;2.20;;;14.10;99.90;;;;;;4967072;28;20023;-72
2022/06/02 02:27:08;;;;;;;2.70;1.95;;;14.10;99.90;;;;;;4969574;28;20030;-72
2022/06/02 02:29:33;;;;;;;;;;;14.00;99.90;;;;;;4963742;28;20065;-72
2022/06/02 02:32:08;;;;;;;4.47;2.40;;;14.00;99.90;;;;;;4951026;28;19965;-72
2022/06/02 02:35:11;;;;;;;2.42;1.70;;;14.00;99.90;;;;;;4964823;28;20054;-72
2022/06/02 02:37:52;;;;;;;3.20;2.13;;;14.10;99.90;;;;;;4965399;28;20483;-73
2022/06/02 02:40:30;;;;;;;2.72;2.15;;;14.10;99.90;;;;;;4963045;28;20077;-72
2022/06/02 02:43:09;;;;;;;3.17;2.25;;;14.10;99.90;;;;;;4964941;28;20030;-72
2022/06/02 02:45:53;;;;;;;1.90;1.52;;;14.10;99.90;;;;;;4962058;28;20035;-72
2022/06/02 02:48:38;;;;;;;3.10;2.10;;;14.00;99.90;;;;;;4966993;28;20038;-72
2022/06/02 02:51:21;;;;;;;3.55;1.88;;;13.90;99.90;;;;;;4964717;28;20035;-71
2022/06/02 02:53:49;;;;;;;4.18;2.42;;;13.90;99.90;;;;;;4964757;28;20023;-73
2022/06/02 02:56:51;;;;;;;3.47;1.90;;;13.90;99.90;;;;;;4962487;28;20122;-72
2022/06/02 02:59:35;;;;;;;2.97;1.50;;;13.80;99.90;;;;;;4970739;28;20149;-72
2022/06/02 03:02:12;;;;;;;3.22;1.70;;;13.80;99.90;;;;;;4948942;28;20186;-72
2022/06/02 03:04:46;;;;;;;3.58;1.55;;;13.80;99.90;;;;;;4965631;28;20082;-72
2022/06/02 03:07:12;;;;;;;;;;;13.80;99.90;;;;;;4964867;28;20081;-71
2022/06/02 03:10:02;;;;;;;2.55;1.70;;;13.70;99.90;;;;;;4952347;28;20299;-71
2022/06/02 03:12:39;;;;;;;4.57;1.63;;;13.70;99.90;;;;;;4969689;28;20586;-72
2022/06/02 03:15:21;;;;;;;3.22;2.30;;;13.70;99.90;;;;;;4965514;28;20476;-71
2022/06/02 03:18:02;;;;;;;5.10;3.13;;;13.70;99.90;;;;;;4965291;28;20038;-70
2022/06/02 03:20:30;;;;;;;4.57;2.97;;;13.70;99.90;;;;;;4942257;28;20037;-71
2022/06/02 03:23:26;;;;;;;4.45;2.47;;;13.80;99.90;;;;;;4966284;28;20024;-73
2022/06/02 03:26:08;;;;;;;5.28;2.08;;;13.70;99.90;;;;;;4960692;28;20039;-72
2022/06/02 03:28:56;;;;;;;4.85;1.80;;;13.70;99.90;;;;;;4967987;28;20027;-71
2022/06/02 03:31:45;;;;;;;3.72;1.80;;;13.70;99.90;;;;;;4962890;28;20112;-72
2022/06/02 03:34:34;;;;;;;3.33;2.15;;;13.70;99.90;;;;;;4965210;28;20030;-72
2022/06/02 03:36:59;;;;;;;2.20;1.52;;;13.60;99.90;;;;;;4965343;28;20030;-71
2022/06/02 03:40:01;;;;;;;5.35;1.85;;;13.60;99.90;;;;;;4966035;28;20027;-72
2022/06/02 03:42:45;;;;;;;4.78;2.00;;;13.60;99.90;;;;;;4959470;28;20028;-72
2022/06/02 03:45:23;;;;;;;;;;;13.60;99.90;;;;;;4962007;28;20046;-72
2022/06/02 03:47:54;;;;;;;2.78;1.90;;;13.60;99.90;;;;;;4963813;28;19914;-72
2022/06/02 03:50:51;;;;;;;2.47;1.33;;;13.60;99.90;;;;;;4947322;28;20027;-72
2022/06/02 03:53:36;;;;;;;4.47;2.03;;;13.60;99.90;;;;;;4967916;28;20038;-72
2022/06/02 03:56:27;;;;;;;5.65;1.70;;;13.70;99.90;;;;;;4958185;28;20031;-72
2022/06/02 03:59:02;;;;;;;3.08;2.30;;;13.70;99.90;;;;;;4971814;28;20519;-71
2022/06/02 04:01:44;;;;;;;2.85;1.65;;;13.80;99.90;;;;;;4965697;28;20045;-71
2022/06/02 04:04:24;;;;;;;3.40;1.98;;;13.80;99.90;;;;;;4967041;28;20162;-71
2022/06/02 04:07:15;;;;;;;3.20;1.50;;;13.80;99.90;;;;;;4964375;28;20027;-73
2022/06/02 04:10:16;;;;;;;3.85;2.03;;;13.80;99.90;;;;;;4966337;28;20035;-70
2022/06/02 04:16:02;;;;;;;3.08;1.80;;;13.80;99.90;;;;;;4968376;28;20090;-72
2022/06/02 04:18:34;;;;;;;;;;;13.80;99.90;;;;;;4969548;28;20030;-71
2022/06/02 04:21:36;;;;;;;3.17;1.90;;;13.80;99.90;;;;;;4968709;28;23278;-71
2022/06/02 04:24:26;;;;;;;3.95;1.83;;;13.90;99.90;;;;;;4952888;28;20030;-72
2022/06/02 04:27:06;;;;;;;3.10;1.98;;;13.90;99.90;;;;;;4972214;28;20030;-71
2022/06/02 04:29:47;;;;;;;4.80;2.10;;;13.90;99.90;;;;;;4967228;28;20029;-72
2022/06/02 04:32:31;;;;;;;2.85;1.60;;;13.90;99.90;;;;;;4953409;28;20034;-70
2022/06/02 04:35:16;;;;;;;3.15;1.50;;;14.00;99.90;;;;;;4951025;28;20582;-72
2022/06/02 04:38:15;;;;;;;3.63;1.90;;;14.00;99.90;;;;;;4970301;28;20035;-70
2022/06/02 04:40:44;;;;;;;3.22;1.67;;;14.00;99.90;;;;;;4954018;28;20499;-71
2022/06/02 04:43:27;;;;;;;3.55;1.75;;;14.10;99.90;;;;;;4963534;28;20037;-72
2022/06/02 04:46:07;;;;;;;3.63;1.65;;;14.10;99.90;;;;;;4963888;28;20541;-71
2022/06/02 04:49:04;;;;;;;2.75;1.73;;;14.20;99.90;;;;;;4948795;28;20499;-74
2022/06/02 04:51:42;;;;;;;5.05;1.77;;;14.50;99.90;;;;;;4968632;28;20019;-70
2022/06/02 04:54:19;;;;;;;2.30;1.48;;;14.60;99.90;;;;;;4963116;28;20062;-72
2022/06/02 04:57:12;;;;;;;3.85;1.40;;;14.80;99.90;;;;;;4967358;28;20042;-70
2022/06/02 04:59:58;;;;;;;4.03;1.85;;;15.00;99.00;;;;;;4967078;28;20562;-73
2022/06/02 05:02:56;;;;;;;4.40;1.40;;;15.20;98.80;;;;;;4951303;28;20039;-73
2022/06/02 05:06:00;;;;;;;3.65;1.60;;;15.30;98.50;;;;;;4967561;28;20427;-73
2022/06/02 05:08:39;;;;;;;1.80;1.33;;;15.40;98.30;;;;;;4943581;28;20042;-73
2022/06/02 05:11:15;;;;;;;2.22;1.17;;;15.60;97.30;;;;;;4948334;28;20549;-73
2022/06/02 05:14:04;;;;;;;5.38;1.23;;;15.70;96.60;;;;;;4967077;28;20023;-71
2022/06/02 05:16:55;;;;;;;3.55;1.10;;;15.90;96.40;;;;;;4962951;28;20051;-71
2022/06/02 05:19:48;;;;;;;3.15;1.20;;;16.10;95.90;;;;;;4971066;28;20169;-72
2022/06/02 05:22:22;;;;;;;4.40;1.47;;;16.20;95.80;;;;;;4962400;28;20050;-73
2022/06/02 05:24:54;;;;;;;;;;;16.20;95.10;;;;;;4965746;28;20034;-71
2022/06/02 05:27:38;;;;;;;1.85;1.05;;;16.20;94.80;;;;;;4953241;28;20299;-73
2022/06/02 05:30:36;;;;;;;3.92;1.35;;;16.10;94.90;;;;;;4960212;28;20029;-70
2022/06/02 05:33:32;;;;;;;2.95;1.70;;;16.10;94.70;;;;;;4967332;28;20030;-73
2022/06/02 05:36:17;;;;;;;4.05;1.27;;;16.20;94.70;;;;;;4967030;28;20039;-72
2022/06/02 05:38:54;;;;;;;2.65;1.30;;;16.40;94.30;;;;;;4966546;28;20039;-73
2022/06/02 05:41:35;;;;;;;4.53;1.50;;;16.50;94.00;;;;;;4965876;28;20131;-72
2022/06/02 05:44:12;;;;;;;3.70;1.50;;;16.60;93.60;;;;;;4968307;28;20039;-71
2022/06/02 05:46:49;;;;;;;2.13;1.40;;;16.70;93.60;;;;;;4970927;28;20027;-70
2022/06/02 05:49:28;;;;;;;3.67;1.10;;;16.80;93.10;;;;;;4968191;28;20073;-71
2022/06/02 05:52:22;;;;;;;1.77;1.15;;;16.90;93.10;;;;;;4967392;28;20432;-70
2022/06/02 05:54:53;;;;;;;2.95;1.70;;;17.00;93.00;;;;;;4963998;28;20027;-71
2022/06/02 05:57:26;;;;;;;2.67;1.40;;;17.10;92.60;;;;;;4949817;28;20023;-70
2022/06/02 06:00:13;;;;;;;4.03;1.05;;;17.00;92.50;;;;;;4966212;28;20031;-73
2022/06/02 06:03:28;;;;;;;2.58;1.55;;;17.10;92.10;;;;;;4964378;28;20073;-73
2022/06/02 06:06:09;;;;;;;3.55;1.40;;;17.20;91.80;;;;;;4895363;28;20036;-72
2022/06/02 06:08:57;;;;;;;2.78;1.67;;;17.30;91.70;;;;;;4965634;28;20038;-72
2022/06/02 06:11:38;;;;;;;2.88;1.38;;;17.20;91.70;;;;;;4963309;28;20026;-73
2022/06/02 06:14:36;;;;;;;3.03;1.23;;;17.30;91.50;;;;;;4964358;28;20158;-73
2022/06/02 06:17:22;;;;;;;2.25;1.40;;;17.30;91.20;;;;;;4963003;28;20050;-73
2022/06/02 06:20:12;;;;;;;5.10;1.60;;;17.30;91.30;;;;;;4964905;28;20631;-73
2022/06/02 06:22:57;;;;;;;2.58;1.38;;;17.30;91.00;;;;;;4965999;28;20027;-73
2022/06/02 06:25:37;;;;;;;3.15;1.30;;;17.20;91.20;;;;;;4966016;28;20031;-73
2022/06/02 06:28:15;;;;;;;2.28;1.30;;;17.10;91.30;;;;;;4947741;28;20435;-73
2022/06/02 06:30:59;;;;;;;4.45;1.45;;;17.10;91.30;;;;;;4963584;28;20045;-72
2022/06/02 06:33:46;;;;;;;6.65;1.60;;;17.00;91.40;;;;;;4961133;28;20035;-73
2022/06/02 06:36:39;;;;;;;6.55;1.15;;;16.90;91.50;;;;;;4960955;28;20034;-73
2022/06/02 06:39:05;;;;;;;4.97;1.90;;;17.00;91.60;;;;;;4956676;28;20062;-73
2022/06/02 06:41:40;;;;;;;5.15;1.42;;;17.10;91.30;;;;;;4944649;28;20026;-74
2022/06/02 06:44:27;;;;;;;4.22;1.52;;;17.10;91.10;;;;;;4944721;28;20026;-74
2022/06/02 06:47:21;;;;;;;3.40;1.63;;;17.10;90.90;;;;;;4960834;28;20133;-73
2022/06/02 06:50:02;;;;;;;3.25;1.55;;;17.10;91.00;;;;;;4943870;28;20038;-73
2022/06/02 06:52:40;;;;;;;4.80;1.88;;;17.20;91.10;;;;;;4957023;28;21039;-72
2022/06/02 06:55:24;;;;;;;3.13;1.40;;;17.30;90.90;;;;;;4958519;28;20567;-67
2022/06/02 06:58:03;;;;;;;2.30;1.33;;;17.30;90.80;;;;;;4957267;28;20118;-68
2022/06/02 07:00:51;;;;;;;4.43;1.70;;;17.30;90.70;;;;;;4959922;28;20045;-68
2022/06/02 07:03:43;;;;;;;4.82;2.10;;;17.40;90.90;;;;;;4962386;28;20122;-70
2022/06/02 07:06:17;;;;;;;3.47;1.63;;;17.40;90.70;;;;;;4960916;28;20038;-73
2022/06/02 07:09:03;;;;;;;4.57;1.50;;;17.50;90.80;;;;;;4960660;28;20031;-72
2022/06/02 07:14:57;;;;;;;3.85;1.38;;;17.30;90.60;;;;;;4962064;28;20038;-73
2022/06/02 07:17:28;;;;;;;2.55;1.60;;;17.30;90.70;;;;;;4960917;28;20042;-73
2022/06/02 07:20:34;;;;;;;4.07;1.73;;;17.30;91.10;;;;;;4962151;28;20443;-72
2022/06/02 07:23:38;;;;;;;2.92;1.40;;;17.30;90.70;;;;;;4928800;28;20109;-73
2022/06/02 07:26:35;;;;;;;2.88;1.50;;;17.30;90.70;;;;;;4960920;28;20424;-73
2022/06/02 07:29:01;;;;;;;3.97;1.55;;;17.30;90.70;;;;;;4927110;28;20445;-73
2022/06/02 07:32:02;;;;;;;1.58;1.30;;;17.30;90.80;;;;;;4960173;28;20027;-72
2022/06/02 07:34:47;;;;;;;3.08;1.27;;;17.30;90.90;;;;;;4949262;28;20139;-72
2022/06/02 07:37:12;;;;;;;2.92;1.65;;;17.30;90.90;;;;;;4947447;28;20027;-73
2022/06/02 07:40:19;;;;;;;10.05;1.63;;;17.30;90.80;;;;;;4960877;28;20042;-73
2022/06/02 07:42:45;;;;;;;4.65;1.40;;;17.20;90.90;;;;;;4953714;28;20046;-73
2022/06/02 07:45:51;;;;;;;6.10;1.20;;;17.30;91.00;;;;;;4963666;28;20094;-73
2022/06/02 07:48:31;;;;;;;2.70;1.55;;;17.40;91.10;;;;;;4922361;28;20387;-72
2022/06/02 07:51:12;;;;;;;2.47;1.42;;;17.50;90.80;;;;;;4933006;28;20067;-72
2022/06/02 07:54:02;;;;;;;2.95;1.42;;;17.40;90.80;;;;;;4963928;28;20030;-72
2022/06/02 07:56:57;;;;;;;2.85;1.38;;;17.50;90.80;;;;;;4962408;28;20431;-73
2022/06/02 07:59:26;;;;;;;4.63;1.20;;;17.50;90.80;;;;;;4962821;28;20050;-72
2022/06/02 08:02:03;;;;;;;1.75;1.20;;;17.60;90.70;;;;;;4959605;28;20781;-73
2022/06/02 08:05:05;;;;;;;2.15;1.38;;;17.70;90.60;;;;;;4950043;28;20105;-73
2022/06/02 08:07:44;;;;;;;3.58;1.63;;;17.70;90.60;;;;;;4964129;28;20361;-73
2022/06/02 08:10:47;;;;;;;5.55;1.60;;;17.70;90.60;;;;;;4964876;28;20019;-73
2022/06/02 08:13:41;;;;;;;2.72;1.60;;;17.80;90.50;;;;;;4965956;28;20035;-72
2022/06/02 08:16:11;;;;;;;4.40;1.90;;;17.80;90.10;;;;;;4959293;28;20035;-73
2022/06/02 08:18:44;;;;;;;5.47;1.42;;;17.90;89.80;;;;;;4956738;28;20022;-72
2022/06/02 08:21:17;;;;;;;5.03;1.70;;;18.00;89.90;;;;;;4962703;28;20031;-73
2022/06/02 08:23:55;;;;;;;8.10;1.80;;;18.00;89.60;;;;;;4949445;28;20941;-73
2022/06/02 08:26:56;;;;;;;2.97;1.35;;;18.10;89.80;;;;;;4963242;28;20031;-72
2022/06/02 08:29:53;;;;;;;2.30;1.50;;;18.20;89.50;;;;;;4929792;28;20035;-73
2022/06/02 08:32:56;;;;;;;3.22;1.52;;;18.40;89.40;;;;;;4966055;28;20460;-72
2022/06/02 08:35:40;;;;;;;4.55;1.80;;;18.50;88.60;;;;;;4967530;28;20153;-73
2022/06/02 08:38:36;;;;;;;3.55;1.30;;;18.60;88.40;;;;;;4963836;28;20092;-72
2022/06/02 08:41:33;;;;;;;2.88;1.67;;;18.80;87.80;;;;;;4967348;28;20031;-73
2022/06/02 08:44:04;;;;;;;3.03;1.20;;;18.90;87.60;;;;;;4967804;28;20039;-72
2022/06/02 08:46:53;;;;;;;3.65;1.35;;;19.00;87.10;;;;;;4965497;28;20082;-72
2022/06/02 08:49:30;;;;;;;3.28;1.30;;;19.10;86.80;;;;;;4964288;28;20023;-72
2022/06/02 08:52:07;;;;;;;3.08;1.70;;;19.10;86.20;;;;;;4968628;28;20506;-72
2022/06/02 08:54:42;;;;;;;4.10;1.42;;;19.10;86.20;;;;;;4948536;28;20037;-73
2022/06/02 08:57:36;;;;;;;3.53;1.55;;;19.20;86.40;;;;;;4947189;28;20031;-71
2022/06/02 09:00:07;;;;;;;10.15;1.73;;;19.20;86.00;;;;;;4964908;28;20117;-73
2022/06/02 09:02:46;;;;;;;3.45;1.63;;;19.20;86.20;;;;;;4952481;28;20047;-74
2022/06/02 09:05:50;;;;;;;2.00;1.30;;;19.20;85.90;;;;;;4962839;28;20058;-74
2022/06/02 09:08:27;;;;;;;4.25;1.83;;;19.20;86.10;;;;;;4937904;28;20122;-73
2022/06/02 09:11:30;;;;;;;6.97;1.77;;;19.30;86.00;;;;;;4961051;28;20122;-73
2022/06/02 09:14:20;;;;;;;3.28;1.60;;;19.30;85.70;;;;;;4965091;28;20035;-74
2022/06/02 09:17:06;;;;;;;5.07;2.05;;;19.40;85.60;;;;;;4966030;28;20027;-72
2022/06/02 09:19:46;;;;;;;2.38;1.23;;;19.40;85.20;;;;;;4963685;28;20118;-72
2022/06/02 09:22:35;;;;;;;2.90;1.50;;;19.50;84.90;;;;;;4966132;28;20038;-74
2022/06/02 09:25:26;;;;;;;2.40;1.42;;;19.50;84.90;;;;;;4963893;28;20162;-73
2022/06/02 09:28:03;;;;;;;2.85;1.85;;;19.60;84.70;;;;;;4965541;28;20030;-74
2022/06/02 09:30:32;;;;;;;5.20;1.92;;;19.60;84.10;;;;;;4968060;28;20066;-74
2022/06/02 09:33:34;;;;;;;3.17;1.50;;;19.60;84.20;;;;;;4970047;28;20677;-74
2022/06/02 09:36:25;;;;;;;2.88;1.50;;;19.60;83.80;;;;;;4967253;28;20104;-75
2022/06/02 09:39:15;;;;;;;8.43;1.60;;;19.60;83.60;;;;;;4965001;28;20050;-75
2022/06/02 09:42:08;;;;;;;3.53;2.00;;;19.60;83.70;;;;;;4965502;28;20047;-74
2022/06/02 09:44:58;;;;;;;2.60;1.20;;;19.70;83.60;;;;;;4950696;28;20521;-73
2022/06/02 09:47:30;;;;;;;4.10;1.40;;;19.80;83.70;;;;;;4947741;28;20408;-74
2022/06/02 09:50:33;;;;;;;5.80;1.70;;;19.90;83.30;;;;;;4964002;28;20027;-73
2022/06/02 09:53:18;;;;;;;7.85;1.65;;;19.90;82.90;;;;;;4965706;28;20121;-74
2022/06/02 09:56:13;;;;;;;5.32;1.80;;;20.00;82.40;;;;;;4964472;28;20129;-75
2022/06/02 09:59:03;;;;;;;5.70;1.70;;;19.90;82.40;;;;;;4901591;28;20048;-74
2022/06/02 10:01:47;;;;;;;2.22;1.30;;;20.00;82.20;;;;;;4966508;28;20127;-72
2022/06/02 10:04:35;;;;;;;3.78;1.58;;;20.00;82.10;;;;;;4966971;28;20027;-75
2022/06/02 10:07:15;;;;;;;2.53;1.45;;;20.10;82.00;;;;;;4968715;28;20472;-73
2022/06/02 10:09:41;;;;;;;1.85;1.30;;;20.20;81.70;;;;;;4943875;28;20023;-73
2022/06/02 10:15:30;;;;;;;3.38;1.58;;;20.30;80.90;;;;;;4972254;28;20153;-71
2022/06/02 10:18:11;;;;;;;4.32;1.77;;;20.30;80.60;;;;;;4959585;28;20027;-72
2022/06/02 10:21:13;;;;;;;6.05;1.83;;;20.30;80.50;;;;;;4958932;28;20535;-71
2022/06/02 10:23:39;;;;;;;1.70;1.42;;;20.40;80.10;;;;;;4947401;28;20034;-72
2022/06/02 10:26:43;;;;;;;3.08;1.30;;;20.40;80.10;;;;;;4964349;28;20034;-72
2022/06/02 10:29:21;;;;;;;5.38;1.67;;;20.40;80.30;;;;;;4968194;28;20035;-72
2022/06/02 10:31:56;;;;;;;2.85;1.75;;;20.50;80.20;;;;;;4965138;28;20542;-71
2022/06/02 10:34:25;;;;;;;4.90;2.00;;;20.50;80.30;;;;;;4968069;28;20035;-72
2022/06/02 10:36:54;;;;;;;8.27;1.83;;;20.60;79.90;;;;;;4963594;28;21184;-70
2022/06/02 10:39:44;;;;;;;4.97;1.80;;;20.80;79.00;;;;;;4947764;28;20527;-71
2022/06/02 10:42:57;;;;;;;1.90;1.40;;;20.80;78.90;;;;;;4964757;28;20510;-72
2022/06/02 10:45:37;;;;;;;4.43;2.35;;;20.90;78.60;;;;;;4852606;29;20044;-72
2022/06/02 10:48:18;;;;;;;4.28;1.33;;;20.90;78.70;;;;;;4963817;28;20046;-72
2022/06/02 10:51:08;;;;;;;6.90;1.63;;;20.90;78.50;;;;;;4967283;28;20023;-73
2022/06/02 10:54:11;;;;;;;2.42;1.88;;;20.90;78.40;;;;;;4963916;28;20081;-72
2022/06/02 10:56:56;;;;;;;5.75;1.30;;;20.90;78.10;;;;;;4958961;28;20653;-72
2022/06/02 10:59:56;;;;;;;3.67;1.48;;;20.90;78.40;;;;;;4954940;28;20480;-71
2022/06/02 11:02:49;;;;;;;2.10;1.45;;;21.00;78.50;;;;;;4944799;28;20035;-72
2022/06/02 11:05:42;;;;;;;2.08;1.40;;;21.10;78.00;;;;;;4964208;28;20039;-72
2022/06/02 11:08:38;;;;;;;3.33;2.03;;;21.10;77.60;;;;;;4961287;28;20109;-73
2022/06/02 11:11:48;;;;;;;3.08;1.48;;;21.20;77.30;;;;;;4959280;28;20031;-72
2022/06/02 11:14:23;;;;;;;3.42;1.63;;;21.20;76.70;;;;;;4938700;28;20051;-71
2022/06/02 11:16:54;;;;;;;3.85;1.50;;;21.30;77.00;;;;;;4964635;28;20542;-72
2022/06/02 11:19:26;;;;;;;1.98;1.35;;;21.30;77.40;;;;;;4942218;28;20065;-72
2022/06/02 11:22:28;;;;;;;3.63;1.70;;;21.30;77.10;;;;;;4947954;28;20054;-72
2022/06/02 11:25:08;;;;;;;3.97;1.30;;;21.30;77.00;;;;;;4967515;28;20380;-72
2022/06/02 11:28:27;;;;;;;4.22;1.77;;;21.30;76.80;;;;;;4965714;28;20081;-71
2022/06/02 11:31:20;;;;;;;5.60;2.05;;;21.40;75.80;;;;;;4965328;28;20042;-72
2022/06/02 11:33:58;;;;;;;3.07;1.30;;;21.60;76.00;;;;;;4963296;28;20589;-72
2022/06/02 11:36:42;;;;;;;4.40;1.80;;;21.70;76.00;;;;;;4962791;28;20805;-78
2022/06/02 11:39:33;;;;;;;2.58;1.52;;;21.80;76.00;;;;;;4951420;28;20062;-76
2022/06/02 11:42:08;;;;;;;4.50;1.42;;;22.00;75.50;;;;;;4963315;28;20499;-75
2022/06/02 11:44:43;;;;;;;3.33;1.60;;;22.10;74.90;;;;;;4963866;28;20027;-77
2022/06/02 11:47:41;;;;;;;3.58;1.55;;;22.30;74.80;;;;;;4965463;28;20023;-77
2022/06/02 11:50:31;;;;;;;3.38;1.83;;;22.50;74.50;;;;;;4962708;28;20027;-76
2022/06/02 11:53:18;;;;;;;5.68;1.70;;;22.60;74.20;;;;;;4962431;28;20574;-77
2022/06/02 11:56:02;;;;;;;3.13;1.40;;;22.70;73.20;;;;;;4965827;28;20373;-76
2022/06/02 11:58:59;;;;;;;4.18;1.50;;;22.70;73.10;;;;;;4994295;23;20050;-72
2022/06/02 12:01:47;;;;;;;5.03;1.20;;;22.90;73.60;;;;;;4987692;28;20436;-72
2022/06/02 12:04:31;;;;;;;2.55;1.55;;;23.00;72.60;;;;;;4996870;28;20084;-72
2022/06/02 12:07:06;;;;;;;3.33;1.38;;;23.20;71.40;;;;;;4978173;28;20393;-72
2022/06/02 12:09:58;;;;;;;4.20;1.45;;;23.30;71.20;;;;;;4995862;28;20022;-71
2022/06/02 12:12:46;;;;;;;4.95;1.70;;;23.40;70.40;;;;;;4995776;28;20022;-73
2022/06/02 12:15:21;;;;;;;3.28;1.40;;;23.50;69.70;;;;;;4979850;28;20110;-73
2022/06/02 12:17:59;;;;;;;3.83;2.00;;;23.50;69.50;;;;;;4997263;28;20022;-71
2022/06/02 12:20:25;;;;;;;2.45;1.67;;;23.50;69.60;;;;;;4995646;28;20022;-72
2022/06/02 12:23:16;;;;;;;5.00;1.60;;;23.60;69.90;;;;;;4977914;28;20348;-72
2022/06/02 12:26:03;;;;;;;6.78;1.60;;;23.60;69.60;;;;;;4988452;28;20070;-73
2022/06/02 12:28:28;;;;;;;3.58;1.40;;;23.60;69.10;;;;;;4989040;28;20054;-71
2022/06/02 12:31:19;;;;;;;2.92;1.60;;;23.80;68.90;;;;;;4976333;28;20494;-72
2022/06/02 12:34:03;;;;;;;2.88;1.50;;;23.90;68.80;;;;;;4975775;28;20026;-72
2022/06/02 12:36:52;;;;;;;1.73;1.25;;;23.80;68.60;;;;;;4990443;28;20386;-74
2022/06/02 12:39:27;;;;;;;1.95;1.40;;;23.90;68.40;;;;;;4984908;28;20573;-76
2022/06/02 12:42:20;;;;;;;2.83;1.58;;;23.90;68.20;;;;;;4988023;28;20040;-73
2022/06/02 12:45:23;;;;;;;4.30;1.58;;;23.90;68.50;;;;;;4989143;28;20479;-73
2022/06/02 12:48:13;;;;;;;3.35;1.58;;;23.90;67.50;;;;;;4982143;28;20744;-73
2022/06/02 12:51:00;;;;;;;4.70;1.52;;;23.80;67.60;;;;;;4982687;28;20034;-72
2022/06/02 12:53:41;;;;;;;6.10;1.63;;;23.70;68.00;;;;;;4987363;28;20507;-74
2022/06/02 12:56:28;;;;;;;7.63;1.55;;;23.70;68.10;;;;;;4986408;28;20450;-74
2022/06/02 12:59:06;;;;;;;6.28;1.38;;;23.80;68.10;;;;;;4984213;28;20026;-73
2022/06/02 13:01:43;;;;;;;1.42;1.30;;;23.70;67.30;;;;;;4986011;28;20490;-73
2022/06/02 13:04:18;;;;;;;3.13;1.40;;;23.60;67.60;;;;;;4968398;28;20050;-73
2022/06/02 13:07:00;;;;;;;4.75;1.33;;;23.60;67.70;;;;;;4984713;28;20042;-73
2022/06/02 13:09:57;;;;;;;3.25;1.23;;;23.60;68.20;;;;;;4982835;28;20439;-73
2022/06/02 13:13:01;;;;;;;1.60;1.27;;;23.70;68.10;;;;;;4982041;28;20042;-73
2022/06/02 13:15:54;;;;;;;2.03;1.38;;;23.80;67.90;;;;;;4980894;28;20476;-74
2022/06/02 13:18:45;;;;;;;3.05;1.40;;;23.80;66.80;;;;;;4983257;28;20507;-73
2022/06/02 13:21:16;;;;;;;3.17;1.42;;;23.60;67.20;;;;;;4985391;28;20029;-72
2022/06/02 13:24:19;;;;;;;6.45;1.30;;;23.70;66.80;;;;;;4985924;28;20479;-72
2022/06/02 13:27:22;;;;;;;3.42;1.20;;;23.60;67.10;;;;;;4984111;28;20521;-72
2022/06/02 13:30:12;;;;;;;2.42;1.30;;;23.70;67.10;;;;;;4985269;28;20409;-72
2022/06/02 13:32:53;;;;;;;3.03;1.10;;;23.60;67.20;;;;;;4985706;28;20030;-72
2022/06/02 13:35:46;;;;;;;4.50;1.38;;;23.70;67.30;;;;;;4986203;28;20030;-72
2022/06/02 13:38:49;;;;;;;2.22;1.55;;;23.70;66.80;;;;;;4985966;28;20112;-73
2022/06/02 13:41:51;;;;;;;2.60;1.50;;;23.70;66.80;;;;;;4978193;28;20364;-73
2022/06/02 13:44:16;;;;;;;2.50;1.15;;;23.60;67.10;;;;;;4984031;28;20026;-72
2022/06/02 13:46:45;;;;;;;2.80;1.25;;;23.60;67.20;;;;;;4985592;28;20040;-73
2022/06/02 13:49:48;;;;;;;2.75;1.60;;;23.60;66.90;;;;;;4986167;28;20556;-73
2022/06/02 13:52:28;;;;;;;3.67;1.33;;;23.50;67.10;;;;;;4980675;28;20367;-75
2022/06/02 13:58:54;;;;;;;2.78;1.40;;;23.30;67.20;;;;;;4962402;28;21565;-74
2022/06/02 14:01:54;;;;;;;3.15;1.40;;;23.20;68.40;;;;;;4942164;28;20057;-73
2022/06/02 14:04:38;;;;;;;2.53;1.42;;;23.10;68.50;;;;;;4981027;28;21183;-74
2022/06/02 14:07:25;;;;;;;13.73;1.40;;;23.10;68.00;;;;;;4977514;28;20391;-73
2022/06/02 14:10:16;;;;;;;1.70;1.20;;;22.90;68.20;;;;;;4979499;28;20145;-75
2022/06/02 14:13:11;;;;;;;2.97;1.35;;;22.90;68.80;;;;;;4986620;28;20026;-74
2022/06/02 14:15:37;;;;;;;2.42;1.40;;;22.80;69.10;;;;;;4987341;28;20056;-73
2022/06/02 14:18:20;;;;;;;2.95;1.55;;;22.70;68.90;;;;;;4970030;28;20550;-74
2022/06/02 14:21:06;;;;;;;2.47;1.67;;;22.60;68.90;;;;;;4965367;28;20408;-74
2022/06/02 14:23:44;;;;;;;2.60;1.48;;;22.50;68.60;;;;;;4968826;28;20038;-74
2022/06/02 14:26:25;;;;;;;3.65;1.33;;;22.40;68.50;;;;;;4987669;28;20106;-74
2022/06/02 14:29:09;;;;;;;6.18;1.83;;;22.30;68.90;;;;;;4983289;28;20027;-75
2022/06/02 14:31:51;;;;;;;2.65;1.30;;;22.30;69.10;;;;;;4988679;28;20117;-74
2022/06/02 14:34:24;;;;;;;3.55;2.03;;;22.30;71.00;;;;;;4986561;28;20030;-75